台中市, 台灣

2014年10月24日 01時08分 (GMT +0800)
ITAIWAND2 | Change Station
CLOSE
Current Station
個人氣象站
Location: Dali, Taichung / Taiwan
海拔: 200 ft
附近的氣象站

海拔 200 ft 24.11 °N, 120.68 °E | Updated 3 minutes ago

Mostly Cloudy
多雲
73.0 °F
感覺像 76 °F
2.0
風 變化 風 來自 西南偏南
Gusts 3.0 英里每小時

今日
高 -- | 低 -- °F
--% 降水機率
昨天
高 -- | 低 -- °F
Precip. -- 英寸
5:58 AM 5:23 PM
殘月, 0% visible
氣壓 29.98 英寸
能見度 6.2 英里
多雲 少數 1200 ft
多雲 6000 ft
高溫指數 76 °F
露點 61 °F
濕度 66%
降雨量 0.00 英寸
積雪深度 不適用。
紫外線 0 / 12
花粉 不適用。
空氣質素 不適用。
Flu Activity 不適用。
METAR RCMQ 231600Z 36009KT 9999 FEW012 BKN060 20/16 Q1015 NOSIG RMK A2999

More Conditions Fewer Conditions

氣壓 29.98 英寸
能見度 6.2 英里
多雲 少數 1200 ft
多雲 6000 ft
高溫指數 76 °F
露點 61 °F
濕度 66%
降雨量 0.00 英寸
積雪深度 不適用。
紫外線 0 / 12
花粉 不適用。
空氣質素 不適用。
Flu Activity 不適用。
METAR RCMQ 231600Z 36009KT 9999 FEW012 BKN060 20/16 Q1015 NOSIG RMK A2999

More Conditions Fewer Conditions

10-Day Weather Forecast

Almanac

天文

Oct. 24, 2014 昇起 降落
實際時間 05:58 CST 17:23 CST
民用曙暮光 05:35 CST 17:46 CST
航海曙暮光 05:09 CST 18:13 CST
天文學微明 04:42 CST 18:39 CST
月亮 06:03 CST (10/24) 17:43 CST (10/24)
可見光的長度 12h 10m
白晝時間
11h 24m
Tomorrow will be 1m 17s shorter.
殘月, 0% of the Moon is Illuminated
10月 23
殘月
10月 23
10月 30
第一季
11月 6
滿月
11月 14
第四季

昨天之最

國家高溫 國家低溫

Community

WunderPhotos

Upload Photos

1,764,311 照片已上傳!

WunderBlogs® & News

Nearby

積雪量

Not available.

地震活動

城市 距離 時間和日期
附近沒有最近發生的地震活動。
顯示的最小幅度是2.5。

沿海水溫

地點 溫度
無任何天氣監測站報告

附近的氣象站